Time;durP1;ratioP1;P1;durP2;ratioP2;P2;SDS_P1;SDS_P2;PMS_P1;PMS_P2;Temp;Humidity;BMP_temperature;BMP_pressure;BME280_temperature;BME280_humidity;BME280_pressure;Samples;Min_cycle;Max_cycle;Signal;HPM_P1;HPM_P2
2022/07/17 00:00:52;;;;;;;2.67;1.97;;;13.10;62.10;;;;;;4213526;28;20224;-75
2022/07/17 00:02:53;;;;;;;2.67;2.00;;;13.00;62.10;;;;;;4213718;28;20175;-75
2022/07/17 00:04:53;;;;;;;2.57;1.80;;;13.00;62.30;;;;;;4213878;28;20278;-75
2022/07/17 00:06:54;;;;;;;3.80;2.13;;;13.00;62.40;;;;;;4213911;28;20211;-75
2022/07/17 00:08:54;;;;;;;2.70;2.17;;;13.00;62.40;;;;;;4213855;28;20656;-75
2022/07/17 00:10:55;;;;;;;2.00;1.60;;;13.00;62.50;;;;;;4213282;28;20210;-75
2022/07/17 00:12:55;;;;;;;3.17;2.00;;;12.90;62.60;;;;;;4213321;28;20171;-75
2022/07/17 00:14:56;;;;;;;3.05;1.90;;;12.90;63.20;;;;;;4214309;28;20195;-75
2022/07/17 00:16:58;;;;;;;2.30;1.67;;;12.90;63.20;;;;;;4213465;28;20262;-75
2022/07/17 00:18:58;;;;;;;4.87;1.93;;;12.80;63.20;;;;;;4214504;28;20178;-75
2022/07/17 00:20:59;;;;;;;3.23;2.13;;;12.80;63.40;;;;;;4214786;28;20696;-75
2022/07/17 00:22:59;;;;;;;2.57;1.83;;;12.80;63.60;;;;;;4212324;28;20680;-75
2022/07/17 00:25:00;;;;;;;3.47;2.07;;;12.70;63.70;;;;;;4213600;28;20203;-75
2022/07/17 00:27:00;;;;;;;2.53;1.80;;;12.80;63.80;;;;;;4213679;28;20258;-76
2022/07/17 00:29:03;;;;;;;9.73;1.93;;;12.70;63.70;;;;;;4214076;28;20672;-76
2022/07/17 00:31:04;;;;;;;2.50;2.00;;;12.70;63.90;;;;;;4213693;28;20171;-75
2022/07/17 00:33:05;;;;;;;2.63;1.80;;;12.60;64.30;;;;;;4215791;28;20178;-75
2022/07/17 00:35:06;;;;;;;3.33;2.03;;;12.50;64.60;;;;;;4213474;28;20205;-75
2022/07/17 00:37:07;;;;;;;1.90;1.80;;;12.50;64.80;;;;;;4213721;28;20542;-75
2022/07/17 00:39:08;;;;;;;3.20;1.90;;;12.50;64.70;;;;;;4212174;28;20217;-75
2022/07/17 00:41:09;;;;;;;4.03;1.90;;;12.60;64.70;;;;;;4212868;28;20181;-75
2022/07/17 00:43:09;;;;;;;2.70;1.73;;;12.50;64.80;;;;;;4213506;28;20649;-75
2022/07/17 00:45:11;;;;;;;2.33;1.93;;;12.50;65.20;;;;;;4213371;28;20805;-76
2022/07/17 00:47:18;;;;;;;2.20;2.00;;;12.50;65.10;;;;;;4213375;28;20209;-76
2022/07/17 00:49:18;;;;;;;2.63;1.70;;;12.50;65.00;;;;;;4213486;28;20216;-75
2022/07/17 00:51:19;;;;;;;2.53;1.93;;;12.50;65.30;;;;;;4212652;28;20175;-75
2022/07/17 00:53:20;;;;;;;3.93;2.17;;;12.40;65.50;;;;;;4213417;28;20179;-76
2022/07/17 00:55:21;;;;;;;2.37;1.80;;;12.40;65.70;;;;;;4213235;28;20210;-75
2022/07/17 00:57:22;;;;;;;5.20;1.90;;;12.30;66.10;;;;;;4213292;28;20186;-75
2022/07/17 00:59:25;;;;;;;2.20;1.87;;;12.30;66.10;;;;;;4213227;28;20175;-76
2022/07/17 01:01:25;;;;;;;2.40;1.90;;;12.30;66.30;;;;;;4212875;28;20179;-75
2022/07/17 01:03:26;;;;;;;3.60;2.00;;;12.30;66.40;;;;;;4213535;28;20830;-76
2022/07/17 01:05:27;;;;;;;3.43;2.23;;;12.20;66.60;;;;;;4213374;28;20256;-76
2022/07/17 01:07:27;;;;;;;3.50;1.70;;;12.20;66.70;;;;;;4211761;28;20282;-76
2022/07/17 01:09:29;;;;;;;2.30;2.10;;;12.20;66.90;;;;;;4213349;28;20532;-76
2022/07/17 01:11:30;;;;;;;3.97;1.80;;;12.20;67.00;;;;;;4212611;28;20187;-76
2022/07/17 01:13:31;;;;;;;2.23;2.03;;;12.10;67.30;;;;;;4212931;28;20183;-76
2022/07/17 01:15:35;;;;;;;3.30;1.83;;;12.10;67.30;;;;;;4212781;28;20207;-76
2022/07/17 01:17:36;;;;;;;4.83;1.90;;;12.10;67.50;;;;;;4213239;28;20642;-77
2022/07/17 01:19:36;;;;;;;2.53;2.20;;;12.10;67.80;;;;;;4212914;28;20181;-76
2022/07/17 01:21:42;;;;;;;2.10;1.90;;;12.00;68.10;;;;;;4210928;28;20187;-76
2022/07/17 01:23:43;;;;;;;2.43;1.90;;;12.00;68.30;;;;;;4212956;28;20182;-76
2022/07/17 01:25:44;;;;;;;2.27;1.90;;;12.00;68.50;;;;;;4212790;28;20202;-76
2022/07/17 01:27:44;;;;;;;2.60;1.87;;;12.00;68.30;;;;;;4212787;28;20175;-76
2022/07/17 01:29:45;;;;;;;2.93;1.90;;;12.00;68.50;;;;;;4212747;28;20255;-77
2022/07/17 01:31:46;;;;;;;2.53;2.30;;;11.90;68.70;;;;;;4210355;28;20183;-76
2022/07/17 01:33:46;;;;;;;2.00;1.80;;;11.90;68.80;;;;;;4196483;28;20187;-76
2022/07/17 01:35:47;;;;;;;2.87;1.97;;;11.90;69.30;;;;;;4196347;28;20207;-77
2022/07/17 01:37:48;;;;;;;4.10;2.03;;;11.90;69.40;;;;;;4195055;28;20190;-77
2022/07/17 01:39:54;;;;;;;2.37;2.00;;;11.80;69.70;;;;;;4194851;28;20185;-77
2022/07/17 01:41:55;;;;;;;2.17;1.97;;;11.80;69.90;;;;;;4195584;28;20630;-76
2022/07/17 01:43:56;;;;;;;3.30;2.20;;;11.80;70.30;;;;;;4196032;28;20179;-76
2022/07/17 01:45:56;;;;;;;2.00;1.80;;;11.70;70.40;;;;;;4195919;28;20182;-78
2022/07/17 01:47:57;;;;;;;2.57;2.13;;;11.70;70.70;;;;;;4196158;28;20183;-76
2022/07/17 01:49:58;;;;;;;3.87;2.27;;;11.60;71.60;;;;;;4195865;28;20189;-77
2022/07/17 01:51:59;;;;;;;2.33;2.13;;;11.60;71.60;;;;;;4211704;28;20197;-76
2022/07/17 01:54:00;;;;;;;2.73;1.97;;;11.70;71.70;;;;;;4212995;28;20215;-77
2022/07/17 01:56:01;;;;;;;2.80;1.87;;;11.70;71.50;;;;;;4212823;28;20260;-76
2022/07/17 01:58:01;;;;;;;2.43;2.20;;;11.70;71.50;;;;;;4212611;28;20198;-76
2022/07/17 02:00:05;;;;;;;2.77;2.30;;;11.60;71.40;;;;;;4212918;28;20187;-77
2022/07/17 02:02:07;;;;;;;6.93;2.23;;;11.60;71.70;;;;;;4211932;28;20751;-77
2022/07/17 02:04:07;;;;;;;4.23;1.90;;;11.60;71.70;;;;;;4212903;28;20728;-77
2022/07/17 02:06:09;;;;;;;2.73;2.13;;;11.50;72.50;;;;;;4211232;28;20201;-77
2022/07/17 02:08:10;;;;;;;3.60;2.23;;;11.50;72.50;;;;;;4212346;28;20251;-77
2022/07/17 02:10:13;;;;;;;2.73;2.07;;;11.50;72.60;;;;;;4214645;28;20658;-77
2022/07/17 02:12:14;;;;;;;3.37;2.30;;;11.50;72.60;;;;;;4214741;28;20167;-77
2022/07/17 02:14:15;;;;;;;2.60;2.10;;;11.50;72.40;;;;;;4215579;28;20203;-76
2022/07/17 02:16:16;;;;;;;2.20;2.00;;;11.50;72.30;;;;;;4215561;28;20202;-77
2022/07/17 02:18:16;;;;;;;2.50;2.17;;;11.50;72.40;;;;;;4210992;28;20244;-77
2022/07/17 02:20:17;;;;;;;4.70;2.13;;;11.50;73.10;;;;;;4220423;28;20231;-77
2022/07/17 02:22:17;;;;;;;2.27;2.07;;;11.50;73.20;;;;;;4216881;28;20249;-77
2022/07/17 02:24:18;;;;;;;2.50;2.10;;;11.50;73.30;;;;;;4215985;28;20259;-77
2022/07/17 02:26:19;;;;;;;5.67;2.50;;;11.40;73.50;;;;;;4215736;28;20214;-77
2022/07/17 02:28:20;;;;;;;6.40;2.40;;;11.40;73.90;;;;;;4215894;28;20301;-77
2022/07/17 02:30:21;;;;;;;2.20;2.00;;;11.50;74.10;;;;;;4215915;28;20185;-77
2022/07/17 02:32:22;;;;;;;5.63;2.30;;;11.40;73.50;;;;;;4214594;28;20204;-77
2022/07/17 02:34:22;;;;;;;1.90;1.70;;;11.50;74.00;;;;;;4212554;28;20225;-77
2022/07/17 02:36:23;;;;;;;2.67;2.13;;;11.40;73.90;;;;;;4215461;28;20217;-77
2022/07/17 02:38:23;;;;;;;3.27;2.17;;;11.40;74.20;;;;;;4215406;28;20194;-77
2022/07/17 02:40:24;;;;;;;3.33;2.00;;;11.40;74.30;;;;;;4215216;28;20256;-77
2022/07/17 02:42:27;;;;;;;2.90;2.33;;;11.30;74.20;;;;;;4214856;28;20668;-77
2022/07/17 02:44:27;;;;;;;3.20;2.33;;;11.30;74.00;;;;;;4214779;28;20296;-77
2022/07/17 02:46:28;;;;;;;2.73;2.10;;;11.40;74.30;;;;;;4213792;28;20251;-77
2022/07/17 02:48:29;;;;;;;2.30;1.97;;;11.30;74.60;;;;;;4214898;28;20185;-77
2022/07/17 02:50:29;;;;;;;4.10;1.90;;;11.20;75.00;;;;;;4214998;28;20194;-78
2022/07/17 02:52:30;;;;;;;3.70;2.27;;;11.20;75.30;;;;;;4214424;28;20186;-77
2022/07/17 02:54:30;;;;;;;3.27;2.40;;;11.20;75.60;;;;;;4214800;28;20228;-77
2022/07/17 02:56:31;;;;;;;4.70;2.30;;;11.10;76.00;;;;;;4214459;28;20217;-78
2022/07/17 02:58:31;;;;;;;2.17;1.97;;;11.10;76.10;;;;;;4214731;28;20208;-77
2022/07/17 03:00:32;;;;;;;2.37;2.17;;;11.10;76.10;;;;;;4214509;28;20299;-78
2022/07/17 03:02:33;;;;;;;2.67;2.00;;;11.10;76.80;;;;;;4214279;28;20654;-77
2022/07/17 03:04:33;;;;;;;2.93;2.27;;;11.10;77.10;;;;;;4214769;28;20842;-78
2022/07/17 03:06:34;;;;;;;4.20;2.40;;;11.10;76.60;;;;;;4214937;28;20189;-77
2022/07/17 03:08:35;;;;;;;5.47;4.50;;;11.00;76.80;;;;;;4214596;28;20235;-77
2022/07/17 03:10:36;;;;;;;3.23;2.43;;;11.00;77.10;;;;;;4213179;28;20208;-77
2022/07/17 03:12:37;;;;;;;2.80;2.30;;;10.90;78.00;;;;;;4214181;28;20178;-78
2022/07/17 03:14:37;;;;;;;2.33;2.13;;;10.90;78.50;;;;;;4214949;28;20300;-78
2022/07/17 03:16:38;;;;;;;5.93;2.33;;;10.80;78.60;;;;;;4214252;28;20211;-78
2022/07/17 03:18:39;;;;;;;4.10;2.40;;;10.80;79.00;;;;;;4214593;28;20208;-78
2022/07/17 03:20:39;;;;;;;2.37;2.10;;;10.80;79.30;;;;;;4213450;28;20197;-77
2022/07/17 03:22:40;;;;;;;2.33;2.13;;;10.80;79.60;;;;;;4213777;28;20184;-78
2022/07/17 03:24:40;;;;;;;2.97;2.23;;;10.80;79.60;;;;;;4210899;28;20290;-77
2022/07/17 03:26:41;;;;;;;6.37;2.43;;;10.70;79.80;;;;;;4214870;28;20199;-78
2022/07/17 03:28:41;;;;;;;3.40;2.23;;;10.70;80.00;;;;;;4214185;28;20185;-77
2022/07/17 03:30:42;;;;;;;3.00;2.60;;;10.70;79.60;;;;;;4213967;28;20184;-78
2022/07/17 03:32:43;;;;;;;4.40;2.53;;;10.80;80.00;;;;;;4213994;28;20653;-78
2022/07/17 03:34:43;;;;;;;2.47;2.27;;;10.80;80.40;;;;;;4214436;28;20207;-78
2022/07/17 03:36:44;;;;;;;5.07;2.53;;;10.70;79.80;;;;;;4214348;28;20211;-78
2022/07/17 03:38:44;;;;;;;3.33;2.30;;;10.70;80.00;;;;;;4212826;28;20222;-77
2022/07/17 03:40:45;;;;;;;5.17;2.67;;;10.70;80.30;;;;;;4213797;28;20632;-78
2022/07/17 03:42:46;;;;;;;2.57;2.30;;;10.60;80.30;;;;;;4214124;28;20180;-78
2022/07/17 03:44:47;;;;;;;5.73;2.20;;;10.60;81.20;;;;;;4214170;28;20191;-78
2022/07/17 03:46:47;;;;;;;3.67;2.23;;;10.70;80.50;;;;;;4212699;28;20186;-78
2022/07/17 03:48:48;;;;;;;4.20;2.23;;;10.70;80.50;;;;;;4213889;28;20193;-77
2022/07/17 03:50:49;;;;;;;2.47;2.23;;;10.70;80.70;;;;;;4213458;28;20186;-78
2022/07/17 03:52:49;;;;;;;3.33;2.33;;;10.60;80.90;;;;;;4214200;28;20563;-78
2022/07/17 03:54:50;;;;;;;3.07;2.13;;;10.60;81.30;;;;;;4213793;28;20208;-77
2022/07/17 03:56:51;;;;;;;3.20;2.17;;;10.70;81.80;;;;;;4213369;28;20205;-78
2022/07/17 03:58:51;;;;;;;3.13;2.50;;;10.70;81.40;;;;;;4213816;28;20560;-78
2022/07/17 04:00:52;;;;;;;2.60;2.20;;;10.70;81.20;;;;;;4213148;28;20263;-78
2022/07/17 04:02:52;;;;;;;5.20;2.57;;;10.70;80.80;;;;;;4213841;28;20280;-78
2022/07/17 04:04:53;;;;;;;5.80;2.20;;;10.70;81.00;;;;;;4213800;28;20222;-78
2022/07/17 04:06:53;;;;;;;3.30;2.10;;;10.70;81.50;;;;;;4213840;28;20178;-78
2022/07/17 04:08:54;;;;;;;3.57;2.07;;;10.70;81.40;;;;;;4213937;28;20193;-78
2022/07/17 04:10:54;;;;;;;4.87;2.20;;;10.60;80.90;;;;;;4213003;28;20222;-77
2022/07/17 04:12:55;;;;;;;3.53;2.50;;;10.60;81.60;;;;;;4213776;28;20182;-78
2022/07/17 04:14:56;;;;;;;2.80;2.60;;;10.70;81.40;;;;;;4213814;28;20579;-77
2022/07/17 04:16:56;;;;;;;3.73;2.80;;;10.70;81.80;;;;;;4213556;28;20209;-78
2022/07/17 04:18:57;;;;;;;5.93;2.63;;;10.70;81.90;;;;;;4215388;28;20273;-77
2022/07/17 04:21:06;;;;;;;2.87;2.37;;;10.70;81.90;;;;;;4214778;28;20852;-78
2022/07/17 04:23:06;;;;;;;2.73;2.20;;;10.70;81.20;;;;;;4213906;28;20167;-78
2022/07/17 04:25:07;;;;;;;3.60;2.70;;;10.70;81.70;;;;;;4213717;28;20425;-77
2022/07/17 04:27:08;;;;;;;2.90;2.60;;;10.80;81.90;;;;;;4212143;28;20684;-78
2022/07/17 04:29:09;;;;;;;3.07;2.13;;;10.80;81.60;;;;;;4213559;28;20175;-77
2022/07/17 04:31:09;;;;;;;3.20;2.40;;;10.90;81.10;;;;;;4213017;28;20567;-78
2022/07/17 04:33:10;;;;;;;2.60;2.40;;;10.90;81.50;;;;;;4213836;28;20189;-78
2022/07/17 04:35:10;;;;;;;3.40;2.40;;;10.90;81.00;;;;;;4208250;28;20876;-77
2022/07/17 04:37:11;;;;;;;5.80;3.70;;;10.90;81.40;;;;;;4214949;28;20205;-78
2022/07/17 04:39:11;;;;;;;2.90;2.10;;;11.00;80.40;;;;;;4215193;28;20179;-77
2022/07/17 04:41:12;;;;;;;3.83;2.53;;;11.00;80.60;;;;;;4215936;28;20238;-78
2022/07/17 04:43:13;;;;;;;3.07;2.40;;;11.10;80.10;;;;;;4216361;28;20213;-78
2022/07/17 04:45:13;;;;;;;4.37;2.27;;;11.10;80.80;;;;;;4215076;28;20699;-78
2022/07/17 04:47:14;;;;;;;3.67;2.40;;;11.10;80.80;;;;;;4215898;28;20622;-79
2022/07/17 04:49:15;;;;;;;3.93;3.00;;;11.20;80.20;;;;;;4216178;28;20194;-77
2022/07/17 04:51:15;;;;;;;3.30;2.30;;;11.20;80.00;;;;;;4214337;28;20213;-78
2022/07/17 04:53:16;;;;;;;6.07;2.70;;;11.30;79.30;;;;;;4214888;28;20213;-77
2022/07/17 04:55:17;;;;;;;2.53;2.33;;;11.20;79.90;;;;;;4214761;28;20678;-77
2022/07/17 04:57:17;;;;;;;2.67;2.40;;;11.20;80.20;;;;;;4216678;28;20186;-78
2022/07/17 04:59:18;;;;;;;2.87;2.43;;;11.20;80.20;;;;;;4215320;28;20269;-77
2022/07/17 05:01:19;;;;;;;2.90;2.30;;;11.20;80.70;;;;;;4215188;28;20201;-79
2022/07/17 05:03:19;;;;;;;5.00;2.50;;;11.30;80.10;;;;;;4215547;28;20319;-77
2022/07/17 05:05:20;;;;;;;3.33;2.53;;;11.30;79.70;;;;;;4216259;28;20606;-77
2022/07/17 05:07:21;;;;;;;3.63;2.40;;;11.40;79.90;;;;;;4216434;28;20555;-78
2022/07/17 05:09:22;;;;;;;2.33;2.17;;;11.30;80.20;;;;;;4215455;28;20205;-77
2022/07/17 05:11:22;;;;;;;4.53;2.60;;;11.30;80.80;;;;;;4215790;28;20171;-77
2022/07/17 05:13:23;;;;;;;2.90;2.40;;;11.30;80.40;;;;;;4215736;28;20171;-78
2022/07/17 05:15:23;;;;;;;3.47;2.60;;;11.30;81.10;;;;;;4215014;28;20207;-77
2022/07/17 05:17:24;;;;;;;3.60;2.60;;;11.30;81.00;;;;;;4215468;28;20842;-78
2022/07/17 05:19:25;;;;;;;3.83;2.67;;;11.40;81.50;;;;;;4213520;28;20238;-78
2022/07/17 05:21:26;;;;;;;3.60;2.57;;;11.40;81.40;;;;;;4214009;28;20203;-77
2022/07/17 05:23:26;;;;;;;7.13;2.70;;;11.40;81.50;;;;;;4214351;28;20655;-77
2022/07/17 05:25:27;;;;;;;5.13;2.50;;;11.50;81.40;;;;;;4215826;28;20877;-78
2022/07/17 05:27:28;;;;;;;2.57;2.33;;;11.50;80.50;;;;;;4215868;28;20645;-78
2022/07/17 05:29:29;;;;;;;3.33;2.70;;;11.60;80.60;;;;;;4216096;28;20228;-78
2022/07/17 05:31:29;;;;;;;3.13;2.70;;;11.60;80.70;;;;;;4215731;28;20183;-78
2022/07/17 05:33:30;;;;;;;3.20;2.33;;;11.70;80.60;;;;;;4215380;28;20182;-77
2022/07/17 05:35:31;;;;;;;3.03;2.60;;;11.70;80.80;;;;;;4215424;28;20257;-77
2022/07/17 05:37:31;;;;;;;4.50;2.70;;;11.80;79.80;;;;;;4215715;28;20171;-77
2022/07/17 05:39:32;;;;;;;3.63;2.67;;;11.90;80.00;;;;;;4215818;28;20224;-76
2022/07/17 05:41:33;;;;;;;3.20;2.33;;;11.90;79.80;;;;;;4215896;28;20606;-77
2022/07/17 05:43:33;;;;;;;3.00;2.53;;;12.00;79.50;;;;;;4214675;28;20182;-78
2022/07/17 05:45:34;;;;;;;2.93;2.57;;;12.00;79.90;;;;;;4217189;28;20198;-77
2022/07/17 05:47:34;;;;;;;3.40;2.60;;;12.10;79.30;;;;;;4219429;28;20240;-76
2022/07/17 05:49:35;;;;;;;3.57;2.60;;;12.20;77.80;;;;;;4217464;28;20653;-77
2022/07/17 05:51:35;;;;;;;2.80;2.50;;;12.30;77.20;;;;;;4218586;28;20186;-77
2022/07/17 05:53:36;;;;;;;3.53;2.63;;;12.30;77.40;;;;;;4215855;28;20179;-76
2022/07/17 05:55:36;;;;;;;3.80;2.27;;;12.40;77.50;;;;;;4215962;28;20207;-76
2022/07/17 05:57:37;;;;;;;2.83;2.20;;;12.40;76.40;;;;;;4214639;28;20183;-77
2022/07/17 05:59:38;;;;;;;4.20;2.63;;;12.50;75.90;;;;;;4216093;28;20179;-77
2022/07/17 06:01:38;;;;;;;2.23;2.03;;;12.60;74.60;;;;;;4214778;28;20171;-77
2022/07/17 06:03:39;;;;;;;2.30;2.10;;;12.70;74.80;;;;;;4215674;28;20175;-76
2022/07/17 06:05:39;;;;;;;4.63;2.50;;;12.80;74.10;;;;;;4215473;28;20187;-76
2022/07/17 06:07:40;;;;;;;3.60;2.13;;;12.90;73.90;;;;;;4215338;28;20546;-77
2022/07/17 06:09:40;;;;;;;3.30;2.33;;;13.00;73.30;;;;;;4215640;28;20214;-77
2022/07/17 06:11:41;;;;;;;3.50;2.27;;;13.10;73.00;;;;;;4215208;28;20631;-77
2022/07/17 06:13:42;;;;;;;2.80;2.40;;;13.20;72.60;;;;;;4215482;28;20187;-76
2022/07/17 06:15:42;;;;;;;4.57;2.50;;;13.20;72.70;;;;;;4215298;28;20206;-77
2022/07/17 06:17:43;;;;;;;3.60;2.40;;;13.30;72.70;;;;;;4215660;28;20175;-76
2022/07/17 06:19:43;;;;;;;3.77;2.60;;;13.50;71.40;;;;;;4216757;28;20179;-76
2022/07/17 06:21:44;;;;;;;4.07;2.30;;;13.60;70.60;;;;;;4216202;28;20191;-78
2022/07/17 06:23:45;;;;;;;3.23;2.50;;;13.70;71.20;;;;;;4215897;28;20178;-76
2022/07/17 06:25:45;;;;;;;3.47;2.60;;;13.80;70.30;;;;;;4215353;28;20195;-76
2022/07/17 06:27:46;;;;;;;4.47;2.27;;;13.90;70.60;;;;;;4216116;28;20643;-76
2022/07/17 06:29:47;;;;;;;3.93;2.37;;;13.90;69.60;;;;;;4215919;28;20179;-76
2022/07/17 06:31:47;;;;;;;3.20;2.40;;;14.10;68.80;;;;;;4215223;28;20187;-76
2022/07/17 06:33:48;;;;;;;2.57;2.20;;;14.20;68.70;;;;;;4215315;28;20186;-76
2022/07/17 06:35:49;;;;;;;3.23;2.27;;;14.30;67.60;;;;;;4215252;28;20206;-76
2022/07/17 06:37:49;;;;;;;3.43;2.27;;;14.40;67.60;;;;;;4215377;28;20171;-76
2022/07/17 06:39:50;;;;;;;4.60;2.57;;;14.60;66.10;;;;;;4215139;28;20625;-76
2022/07/17 06:41:50;;;;;;;4.17;2.00;;;14.90;64.00;;;;;;4214625;28;20179;-75
2022/07/17 06:43:51;;;;;;;3.57;2.33;;;15.00;62.50;;;;;;4215083;28;20167;-76
2022/07/17 06:45:53;;;;;;;3.33;2.37;;;15.10;62.90;;;;;;4214930;28;20206;-76
2022/07/17 06:47:54;;;;;;;2.27;2.07;;;15.10;62.90;;;;;;4215191;28;20175;-76
2022/07/17 06:49:54;;;;;;;2.47;2.07;;;15.20;61.50;;;;;;4215177;28;20179;-77
2022/07/17 06:51:55;;;;;;;2.50;2.30;;;15.70;59.40;;;;;;4214185;28;20202;-77
2022/07/17 06:53:56;;;;;;;3.77;2.30;;;15.70;59.30;;;;;;4214731;28;20178;-77
2022/07/17 06:55:57;;;;;;;2.30;2.10;;;15.80;58.20;;;;;;4214415;28;20203;-77
2022/07/17 06:57:57;;;;;;;4.17;2.33;;;15.90;57.90;;;;;;4214802;28;20171;-77
2022/07/17 06:59:58;;;;;;;3.80;2.20;;;16.10;57.60;;;;;;4213551;28;20183;-77
2022/07/17 07:01:58;;;;;;;3.10;2.67;;;16.30;57.10;;;;;;4214141;28;20171;-78
2022/07/17 07:03:59;;;;;;;2.00;1.90;;;16.30;56.70;;;;;;4214621;28;20257;-77
2022/07/17 07:05:59;;;;;;;2.17;1.90;;;16.50;56.90;;;;;;4214694;28;20182;-77
2022/07/17 07:08:00;;;;;;;2.20;1.93;;;16.50;57.30;;;;;;4214757;28;20179;-77
2022/07/17 07:10:01;;;;;;;3.50;2.00;;;16.60;56.20;;;;;;4215006;28;20179;-77
2022/07/17 07:12:02;;;;;;;5.67;2.27;;;16.80;55.20;;;;;;4213858;28;20231;-78
2022/07/17 07:14:03;;;;;;;4.07;1.73;;;17.10;52.50;;;;;;4214408;28;20261;-77
2022/07/17 07:16:04;;;;;;;5.73;2.00;;;17.20;53.70;;;;;;4214563;28;20209;-78
2022/07/17 07:18:05;;;;;;;3.57;2.10;;;17.40;51.40;;;;;;4207907;28;20544;-77
2022/07/17 07:20:06;;;;;;;2.10;1.90;;;17.60;51.20;;;;;;4198042;28;20179;-79
2022/07/17 07:22:06;;;;;;;4.87;1.90;;;17.80;50.20;;;;;;4197556;28;20171;-76
2022/07/17 07:24:07;;;;;;;4.03;2.23;;;17.90;49.80;;;;;;4197920;28;20335;-77
2022/07/17 07:26:08;;;;;;;2.00;1.77;;;18.10;48.00;;;;;;4197731;28;20263;-78
2022/07/17 07:28:09;;;;;;;2.67;2.10;;;18.30;48.20;;;;;;4197870;28;20176;-78
2022/07/17 07:30:10;;;;;;;3.47;1.80;;;18.40;46.40;;;;;;4196359;28;20994;-78
2022/07/17 07:32:11;;;;;;;3.83;2.30;;;18.60;46.20;;;;;;4197017;28;20258;-77
2022/07/17 07:34:11;;;;;;;3.70;2.20;;;18.70;45.70;;;;;;4197167;28;20219;-77
2022/07/17 07:36:12;;;;;;;3.37;1.93;;;18.80;45.80;;;;;;4197275;28;20264;-79
2022/07/17 07:38:13;;;;;;;6.20;2.33;;;18.80;46.10;;;;;;4197421;28;20594;-78
2022/07/17 07:40:14;;;;;;;3.10;1.83;;;18.90;45.00;;;;;;4197582;28;20271;-77
2022/07/17 07:42:14;;;;;;;2.93;2.50;;;19.00;43.80;;;;;;4196980;28;20238;-79
2022/07/17 07:44:15;;;;;;;2.33;2.13;;;19.10;47.20;;;;;;4197422;28;20203;-78
2022/07/17 07:46:15;;;;;;;3.17;1.97;;;19.10;44.40;;;;;;4197225;28;20240;-78
2022/07/17 07:48:16;;;;;;;2.33;1.90;;;19.20;44.10;;;;;;4197215;28;20647;-79
2022/07/17 07:50:18;;;;;;;2.23;1.90;;;19.40;43.70;;;;;;4197216;28;20175;-78
2022/07/17 07:52:18;;;;;;;2.10;1.90;;;19.60;44.40;;;;;;4211910;28;20197;-78
2022/07/17 07:54:19;;;;;;;1.87;1.63;;;19.70;42.50;;;;;;4214017;28;20207;-78
2022/07/17 07:56:19;;;;;;;2.83;2.63;;;19.70;42.30;;;;;;4213726;28;20305;-77
2022/07/17 07:58:20;;;;;;;3.07;2.33;;;19.80;42.40;;;;;;4213515;28;20541;-77
2022/07/17 08:00:21;;;;;;;2.93;2.03;;;19.70;43.00;;;;;;4213647;28;20190;-77
2022/07/17 08:02:21;;;;;;;2.80;1.70;;;19.80;41.50;;;;;;4211936;28;20187;-78
2022/07/17 08:04:22;;;;;;;2.17;1.90;;;20.00;40.70;;;;;;4213564;28;20221;-77
2022/07/17 08:06:22;;;;;;;2.70;2.00;;;20.20;40.40;;;;;;4213638;28;20231;-78
2022/07/17 08:08:23;;;;;;;1.83;1.70;;;20.30;40.50;;;;;;4212919;28;20182;-77
2022/07/17 08:10:23;;;;;;;2.90;2.13;;;20.40;40.60;;;;;;4213432;28;20646;-78
2022/07/17 08:12:24;;;;;;;2.13;1.70;;;20.40;39.50;;;;;;4212738;28;20236;-77
2022/07/17 08:14:25;;;;;;;1.80;1.70;;;20.50;39.20;;;;;;4213738;28;20245;-78
2022/07/17 08:16:25;;;;;;;2.13;1.63;;;20.60;38.70;;;;;;4213469;28;20681;-78
2022/07/17 08:18:26;;;;;;;4.03;2.30;;;20.30;39.00;;;;;;4214496;28;20174;-78
2022/07/17 08:20:27;;;;;;;3.27;1.97;;;20.50;39.40;;;;;;4213932;28;20197;-79
2022/07/17 08:22:27;;;;;;;2.47;2.17;;;20.50;39.90;;;;;;4211791;28;20625;-78
2022/07/17 08:24:28;;;;;;;3.37;2.20;;;20.70;39.30;;;;;;4213597;28;20202;-78
2022/07/17 08:26:29;;;;;;;3.20;1.93;;;20.90;39.10;;;;;;4213477;28;20186;-78
2022/07/17 08:28:29;;;;;;;2.60;1.90;;;20.90;38.50;;;;;;4213403;28;20707;-78
2022/07/17 08:30:34;;;;;;;2.83;2.27;;;21.00;37.80;;;;;;4213619;28;20183;-78
2022/07/17 08:32:35;;;;;;;2.40;2.20;;;21.20;38.20;;;;;;4212684;28;20201;-78
2022/07/17 08:34:36;;;;;;;3.57;2.70;;;21.10;37.60;;;;;;4213072;28;20281;-78
2022/07/17 08:36:37;;;;;;;2.60;2.40;;;21.20;37.90;;;;;;4213163;28;20248;-78
2022/07/17 08:38:37;;;;;;;6.03;4.13;;;21.40;37.90;;;;;;4213082;28;20187;-80
2022/07/17 08:40:38;;;;;;;3.40;3.20;;;21.50;39.70;;;;;;4212205;28;20231;-77
2022/07/17 08:42:42;;;;;;;3.87;3.57;;;21.50;37.20;;;;;;4212678;28;20175;-78
2022/07/17 08:44:44;;;;;;;3.03;2.17;;;21.40;36.30;;;;;;4211552;28;20211;-78
2022/07/17 08:46:44;;;;;;;2.00;1.83;;;21.50;36.60;;;;;;4212994;28;20262;-78
2022/07/17 08:48:46;;;;;;;3.70;3.40;;;21.40;35.60;;;;;;4213180;28;20183;-77
2022/07/17 08:50:47;;;;;;;2.77;2.00;;;21.50;36.00;;;;;;4212411;28;20179;-78
2022/07/17 08:52:48;;;;;;;3.60;2.90;;;21.60;35.60;;;;;;4213177;28;20250;-77
2022/07/17 08:54:49;;;;;;;2.97;1.50;;;21.70;35.40;;;;;;4213241;28;20198;-77
2022/07/17 08:56:49;;;;;;;5.13;4.77;;;21.90;35.80;;;;;;4212946;28;20213;-75
2022/07/17 08:58:50;;;;;;;6.40;2.37;;;21.80;35.00;;;;;;4212642;28;20185;-75
2022/07/17 09:00:51;;;;;;;2.47;1.80;;;21.60;34.90;;;;;;4212143;28;20266;-76
2022/07/17 09:02:54;;;;;;;3.33;2.83;;;21.60;35.20;;;;;;4212689;28;20551;-76
2022/07/17 09:04:55;;;;;;;5.20;4.80;;;21.90;35.00;;;;;;4212782;28;20263;-76
2022/07/17 09:07:04;;;;;;;3.40;3.10;;;22.00;34.70;;;;;;4213117;28;20210;-76
2022/07/17 09:09:07;;;;;;;3.40;2.67;;;21.80;35.10;;;;;;4213094;28;20227;-76
2022/07/17 09:11:08;;;;;;;2.77;1.93;;;22.00;35.40;;;;;;4210936;28;20183;-75
2022/07/17 09:13:36;;;;;;;3.33;1.90;;;22.10;33.60;;;;;;4209320;28;20544;-76
2022/07/17 09:15:36;;;;;;;2.47;2.10;;;22.40;33.30;;;;;;4195543;28;20262;-75
2022/07/17 09:17:51;;;;;;;3.50;3.07;;;22.30;34.10;;;;;;4194918;28;20183;-75
2022/07/17 09:19:52;;;;;;;4.40;2.27;;;22.30;34.50;;;;;;4198166;28;20179;-75
2022/07/17 09:22:11;;;;;;;2.57;2.37;;;22.20;34.60;;;;;;4198881;28;20570;-75
2022/07/17 09:24:11;;;;;;;2.80;1.80;;;22.60;35.10;;;;;;4199550;28;20654;-76
2022/07/17 09:26:12;;;;;;;2.43;1.90;;;22.70;33.00;;;;;;4199575;28;20218;-75
2022/07/17 09:28:15;;;;;;;2.77;2.50;;;22.90;33.50;;;;;;4199285;28;20183;-75
2022/07/17 09:30:17;;;;;;;3.67;1.97;;;22.90;32.30;;;;;;4199343;28;20183;-75
2022/07/17 09:32:19;;;;;;;2.67;2.10;;;23.00;32.80;;;;;;4198716;28;20681;-75
2022/07/17 09:34:20;;;;;;;3.87;2.27;;;22.90;31.60;;;;;;4197957;28;20274;-75
2022/07/17 09:36:21;;;;;;;3.67;3.37;;;23.00;31.90;;;;;;4199295;28;20555;-74
2022/07/17 09:38:26;;;;;;;3.87;3.60;;;23.10;31.60;;;;;;4199071;28;20545;-75
2022/07/17 09:42:46;;;;;;;2.80;2.20;;;23.20;31.70;;;;;;4199288;28;20243;-75
2022/07/17 09:45:04;;;;;;;3.90;2.23;;;23.10;32.40;;;;;;4199199;28;20196;-74
2022/07/17 09:47:05;;;;;;;3.93;3.43;;;23.40;31.60;;;;;;4199182;28;20179;-74
2022/07/17 09:49:09;;;;;;;1.70;1.60;;;23.50;30.50;;;;;;4201640;28;20548;-75
2022/07/17 09:51:11;;;;;;;2.80;2.27;;;23.70;31.00;;;;;;4215152;28;20191;-75
2022/07/17 09:53:12;;;;;;;12.73;12.00;;;23.70;30.60;;;;;;4215376;28;20677;-75
2022/07/17 09:55:14;;;;;;;2.43;1.87;;;23.70;31.10;;;;;;4215910;28;20582;-74
2022/07/17 09:57:16;;;;;;;3.10;2.87;;;23.70;31.20;;;;;;4215774;28;20243;-76
2022/07/17 09:59:18;;;;;;;2.37;2.13;;;24.00;31.00;;;;;;4214635;28;20175;-75
2022/07/17 10:01:19;;;;;;;2.90;2.10;;;23.80;30.10;;;;;;4213752;28;20193;-74
2022/07/17 10:03:20;;;;;;;2.03;1.83;;;24.20;31.30;;;;;;4215504;28;20174;-74
2022/07/17 10:05:20;;;;;;;4.83;4.53;;;24.30;30.20;;;;;;4215550;28;20282;-74
2022/07/17 10:07:21;;;;;;;2.63;2.43;;;24.40;29.70;;;;;;4213268;28;20250;-76
2022/07/17 10:09:22;;;;;;;3.40;2.37;;;24.50;29.80;;;;;;4230562;28;20870;-75
2022/07/17 10:11:26;;;;;;;3.50;3.20;;;24.60;28.90;;;;;;4217248;28;20175;-79
2022/07/17 10:13:28;;;;;;;1.97;1.87;;;24.80;28.20;;;;;;4230109;28;20166;-76
2022/07/17 10:15:29;;;;;;;3.10;2.70;;;24.40;27.40;;;;;;4219521;28;20198;-78
2022/07/17 10:17:29;;;;;;;1.90;1.70;;;24.20;28.70;;;;;;4231955;28;20288;-77
2022/07/17 10:19:32;;;;;;;3.47;2.03;;;24.70;28.00;;;;;;4219173;28;20186;-77
2022/07/17 10:21:33;;;;;;;2.57;1.70;;;25.30;27.50;;;;;;4228836;28;20197;-77
2022/07/17 10:23:33;;;;;;;4.57;3.00;;;25.50;26.70;;;;;;4219161;28;20559;-75
2022/07/17 10:25:34;;;;;;;1.73;1.63;;;25.50;26.30;;;;;;4228728;28;20210;-74
2022/07/17 10:27:36;;;;;;;4.47;2.00;;;25.70;26.50;;;;;;4217514;28;20235;-73
2022/07/17 10:29:38;;;;;;;2.00;1.80;;;25.90;25.00;;;;;;4226976;28;20662;-75
2022/07/17 10:31:50;;;;;;;4.00;1.73;;;25.90;24.50;;;;;;4217424;28;20182;-75
2022/07/17 10:33:59;;;;;;;3.43;2.00;;;26.00;25.30;;;;;;4226141;28;20167;-72